Time;durP1;ratioP1;P1;durP2;ratioP2;P2;SDS_P1;SDS_P2;PMS_P1;PMS_P2;Temp;Humidity;BMP_temperature;BMP_pressure;BME280_temperature;BME280_humidity;BME280_pressure;Samples;Min_cycle;Max_cycle;Signal;HPM_P1;HPM_P2
2022/07/25 00:01:31;;;;;;;12.40;8.52;;;20.40;99.90;;;;;;5013083;28;20025;-63
2022/07/25 00:03:57;;;;;;;17.48;8.95;;;20.40;99.90;;;;;;5027219;28;20049;-62
2022/07/25 00:06:22;;;;;;;14.82;8.63;;;20.40;99.90;;;;;;5014675;28;20034;-62
2022/07/25 00:08:48;;;;;;;13.48;8.45;;;20.30;99.90;;;;;;5009602;28;20168;-63
2022/07/25 00:11:13;;;;;;;15.55;8.75;;;20.30;99.90;;;;;;5015904;28;20029;-62
2022/07/25 00:13:39;;;;;;;12.80;8.32;;;20.20;99.90;;;;;;5023049;28;20026;-62
2022/07/25 00:16:05;;;;;;;11.95;8.77;;;20.20;99.90;;;;;;5021476;28;20065;-62
2022/07/25 00:18:30;;;;;;;18.00;8.80;;;20.20;99.90;;;;;;5025221;28;20022;-62
2022/07/25 00:20:56;;;;;;;12.07;9.18;;;20.10;99.90;;;;;;5016159;28;20021;-62
2022/07/25 00:23:21;;;;;;;17.15;9.90;;;20.00;99.90;;;;;;5026005;28;20079;-62
2022/07/25 00:25:47;;;;;;;12.25;9.10;;;20.00;99.90;;;;;;5021756;28;20038;-62
2022/07/25 00:28:12;;;;;;;12.48;8.57;;;20.00;99.90;;;;;;5029015;28;20032;-62
2022/07/25 00:30:38;;;;;;;15.27;8.80;;;19.90;99.90;;;;;;5009986;28;20780;-62
2022/07/25 00:33:03;;;;;;;11.55;8.73;;;19.90;99.90;;;;;;5021662;28;20034;-63
2022/07/25 00:35:29;;;;;;;14.68;9.77;;;19.90;99.90;;;;;;5009252;28;20026;-62
2022/07/25 00:37:54;;;;;;;15.43;9.30;;;19.90;99.90;;;;;;5010365;28;20021;-62
2022/07/25 00:40:20;;;;;;;11.48;8.55;;;19.80;99.90;;;;;;5015824;28;20558;-63
2022/07/25 00:42:46;;;;;;;13.68;9.00;;;19.80;99.90;;;;;;5010730;28;20042;-60
2022/07/25 00:45:11;;;;;;;12.50;8.45;;;19.70;99.90;;;;;;5022145;28;20037;-63
2022/07/25 00:47:37;;;;;;;16.45;9.63;;;19.70;99.90;;;;;;5009863;28;20808;-62
2022/07/25 00:50:03;;;;;;;13.82;9.10;;;19.70;99.90;;;;;;5010525;28;20408;-62
2022/07/25 00:52:28;;;;;;;12.43;8.40;;;19.60;99.90;;;;;;5016327;28;20048;-62
2022/07/25 00:54:55;;;;;;;19.73;9.32;;;19.60;99.90;;;;;;5013696;28;20459;-63
2022/07/25 00:57:21;;;;;;;13.00;8.75;;;19.60;99.90;;;;;;5014875;28;20839;-63
2022/07/25 00:59:47;;;;;;;13.30;8.85;;;19.50;99.90;;;;;;5023763;28;20034;-62
2022/07/25 01:02:12;;;;;;;12.80;9.15;;;19.50;99.90;;;;;;5010391;28;20034;-63
2022/07/25 01:04:39;;;;;;;14.98;9.68;;;19.50;99.90;;;;;;5010232;28;20104;-62
2022/07/25 01:07:05;;;;;;;15.13;9.43;;;19.50;99.90;;;;;;5011529;28;20508;-62
2022/07/25 01:09:31;;;;;;;13.70;8.93;;;19.50;99.90;;;;;;5014457;28;20057;-63
2022/07/25 01:11:57;;;;;;;14.93;9.55;;;19.50;99.90;;;;;;5012741;28;20083;-63
2022/07/25 01:14:22;;;;;;;12.95;8.40;;;19.60;99.90;;;;;;5019525;28;20087;-63
2022/07/25 01:16:48;;;;;;;12.43;9.05;;;19.60;99.90;;;;;;5012233;28;20026;-63
2022/07/25 01:19:14;;;;;;;16.10;9.40;;;19.60;99.90;;;;;;5012516;28;20033;-62
2022/07/25 01:21:41;;;;;;;12.88;8.82;;;19.50;99.90;;;;;;5014349;28;20025;-64
2022/07/25 01:24:07;;;;;;;12.60;8.85;;;19.50;99.90;;;;;;5013128;28;20031;-63
2022/07/25 01:26:33;;;;;;;13.00;9.48;;;19.50;99.90;;;;;;5009691;28;20691;-64
2022/07/25 01:28:58;;;;;;;11.45;9.20;;;19.40;99.90;;;;;;5007937;28;20034;-64
2022/07/25 01:31:24;;;;;;;11.98;8.63;;;19.40;99.90;;;;;;5009285;28;20018;-63
2022/07/25 01:33:50;;;;;;;14.68;9.65;;;19.40;99.90;;;;;;5009553;28;20030;-63
2022/07/25 01:36:16;;;;;;;14.57;9.25;;;19.40;99.90;;;;;;5009903;28;20033;-60
2022/07/25 01:38:42;;;;;;;16.35;9.13;;;19.30;99.90;;;;;;5010505;28;20108;-61
2022/07/25 01:41:07;;;;;;;15.38;10.10;;;19.30;99.90;;;;;;5024169;28;20117;-62
2022/07/25 01:43:33;;;;;;;17.08;10.32;;;19.30;99.90;;;;;;5014610;28;20117;-63
2022/07/25 01:45:58;;;;;;;12.95;9.32;;;19.30;99.90;;;;;;5008650;28;20201;-63
2022/07/25 01:48:24;;;;;;;12.48;9.40;;;19.30;99.90;;;;;;5015579;28;20087;-60
2022/07/25 01:50:49;;;;;;;17.48;10.80;;;19.30;99.90;;;;;;5009706;28;20488;-60
2022/07/25 01:53:16;;;;;;;17.27;10.50;;;19.20;99.90;;;;;;5015091;28;20056;-63
2022/07/25 01:55:44;;;;;;;14.85;9.68;;;19.20;99.90;;;;;;5008063;28;20033;-63
2022/07/25 01:58:10;;;;;;;14.77;9.80;;;19.20;99.90;;;;;;5020136;28;20168;-62
2022/07/25 02:00:35;;;;;;;14.45;9.57;;;19.20;99.90;;;;;;5021183;28;20484;-63
2022/07/25 02:05:45;;;;;;;23.55;10.05;;;19.00;99.90;;;;;;5008243;28;20079;-62
2022/07/25 02:08:11;;;;;;;14.18;9.38;;;19.00;99.90;;;;;;5016466;28;20045;-62
2022/07/25 02:10:37;;;;;;;13.77;10.10;;;18.90;99.90;;;;;;5038319;23;20049;-59
2022/07/25 02:13:02;;;;;;;14.40;9.65;;;18.90;99.90;;;;;;5031275;28;20045;-59
2022/07/25 02:15:28;;;;;;;14.13;10.13;;;18.90;99.90;;;;;;5036740;28;20025;-60
2022/07/25 02:17:53;;;;;;;19.02;10.32;;;18.80;99.90;;;;;;5032524;28;20033;-59
2022/07/25 02:20:19;;;;;;;14.20;9.32;;;18.80;99.90;;;;;;5029485;28;20026;-59
2022/07/25 02:22:44;;;;;;;14.23;10.27;;;18.80;99.90;;;;;;5031367;28;20031;-58
2022/07/25 02:25:10;;;;;;;17.25;10.57;;;18.80;99.90;;;;;;5027957;28;20061;-59
2022/07/25 02:27:35;;;;;;;14.93;10.85;;;18.80;99.90;;;;;;5030436;28;20105;-59
2022/07/25 02:30:01;;;;;;;15.60;11.00;;;18.70;99.90;;;;;;5023444;28;20045;-60
2022/07/25 02:32:26;;;;;;;16.45;9.65;;;18.70;99.90;;;;;;5024936;28;20034;-58
2022/07/25 02:34:52;;;;;;;14.20;11.27;;;18.70;99.90;;;;;;5028559;28;20030;-60
2022/07/25 02:37:18;;;;;;;15.57;9.98;;;18.70;99.90;;;;;;5019728;28;20097;-60
2022/07/25 02:39:43;;;;;;;13.98;10.10;;;18.70;99.90;;;;;;5020979;28;20030;-60
2022/07/25 02:42:08;;;;;;;16.20;10.35;;;18.70;99.90;;;;;;5026117;28;20044;-60
2022/07/25 02:44:34;;;;;;;17.63;10.90;;;18.70;99.90;;;;;;5026100;28;20532;-59
2022/07/25 02:46:59;;;;;;;15.75;10.50;;;18.70;99.90;;;;;;5028149;28;20030;-59
2022/07/25 02:49:25;;;;;;;13.32;9.95;;;18.60;99.90;;;;;;5028210;28;20056;-58
2022/07/25 02:51:51;;;;;;;16.15;9.90;;;18.60;99.90;;;;;;5029071;28;20021;-60
2022/07/25 02:54:16;;;;;;;18.45;10.70;;;18.50;99.90;;;;;;5025866;28;20480;-60
2022/07/25 02:56:42;;;;;;;17.17;10.55;;;18.40;99.90;;;;;;5028305;28;20087;-60
2022/07/25 02:59:07;;;;;;;15.38;10.63;;;18.40;99.90;;;;;;5031496;28;20018;-60
2022/07/25 03:01:33;;;;;;;22.88;10.32;;;18.40;99.90;;;;;;5025552;28;20052;-59
2022/07/25 03:03:58;;;;;;;15.35;11.13;;;18.30;99.90;;;;;;5023221;28;20030;-59
2022/07/25 03:06:24;;;;;;;20.90;11.13;;;18.30;99.90;;;;;;5026814;28;20095;-60
2022/07/25 03:08:49;;;;;;;14.10;10.82;;;18.30;99.90;;;;;;5027398;28;20029;-60
2022/07/25 03:11:15;;;;;;;14.57;10.55;;;18.30;99.90;;;;;;5024555;28;20492;-60
2022/07/25 03:13:41;;;;;;;15.90;11.05;;;18.30;99.90;;;;;;5021495;28;20029;-60
2022/07/25 03:16:07;;;;;;;14.48;10.88;;;18.30;99.90;;;;;;5025373;28;20108;-60
2022/07/25 03:18:32;;;;;;;16.90;10.98;;;18.30;99.90;;;;;;5031581;28;20033;-61
2022/07/25 03:20:58;;;;;;;17.88;11.48;;;18.30;99.90;;;;;;5012635;28;20032;-61
2022/07/25 03:23:25;;;;;;;18.20;11.40;;;18.40;99.90;;;;;;5029772;28;20149;-60
2022/07/25 03:25:51;;;;;;;20.15;11.13;;;18.30;99.90;;;;;;5032065;28;20483;-60
2022/07/25 03:28:17;;;;;;;20.55;12.55;;;18.30;99.90;;;;;;5026062;28;20044;-60
2022/07/25 03:30:42;;;;;;;14.20;10.73;;;18.30;99.90;;;;;;5031840;28;20029;-60
2022/07/25 03:33:08;;;;;;;14.90;10.98;;;18.30;99.90;;;;;;5027443;28;20035;-60
2022/07/25 03:35:36;;;;;;;17.67;11.32;;;18.30;99.90;;;;;;5023523;28;20029;-60
2022/07/25 03:38:01;;;;;;;13.57;10.68;;;18.30;99.90;;;;;;5027195;28;20031;-61
2022/07/25 03:40:27;;;;;;;17.83;11.45;;;18.30;99.90;;;;;;5032512;28;20029;-61
2022/07/25 03:42:53;;;;;;;17.65;10.95;;;18.20;99.90;;;;;;5028823;28;20057;-60
2022/07/25 03:45:18;;;;;;;20.13;11.73;;;18.20;99.90;;;;;;5029553;28;20036;-61
2022/07/25 03:47:44;;;;;;;16.15;10.45;;;18.30;99.90;;;;;;5028613;28;20038;-61
2022/07/25 03:50:10;;;;;;;21.88;11.05;;;18.20;99.90;;;;;;5028924;28;20503;-60
2022/07/25 03:52:37;;;;;;;19.77;11.13;;;18.20;99.90;;;;;;5026483;28;20026;-60
2022/07/25 03:55:05;;;;;;;19.55;11.25;;;18.20;99.90;;;;;;5027238;28;20484;-59
2022/07/25 03:57:30;;;;;;;19.50;10.73;;;18.20;99.90;;;;;;5019603;28;20493;-59
2022/07/25 03:59:56;;;;;;;16.23;11.18;;;18.20;99.90;;;;;;5026983;28;20076;-59
2022/07/25 04:02:21;;;;;;;19.13;12.02;;;18.20;99.90;;;;;;5026373;28;20038;-60
2022/07/25 04:04:47;;;;;;;16.10;11.05;;;18.20;99.90;;;;;;5030027;28;20048;-60
2022/07/25 04:07:12;;;;;;;16.85;11.25;;;18.20;99.90;;;;;;5028732;28;20083;-61
2022/07/25 04:09:38;;;;;;;17.42;11.75;;;18.20;99.90;;;;;;5030123;28;20056;-60
2022/07/25 04:12:04;;;;;;;19.48;12.27;;;18.20;99.90;;;;;;5023814;28;20033;-59
2022/07/25 04:14:29;;;;;;;19.48;11.90;;;18.20;99.90;;;;;;5029351;28;20030;-60
2022/07/25 04:16:55;;;;;;;16.58;11.90;;;18.10;99.90;;;;;;5022657;28;20606;-60
2022/07/25 04:19:20;;;;;;;19.10;11.52;;;18.10;99.90;;;;;;5023146;28;20086;-61
2022/07/25 04:21:46;;;;;;;15.40;11.85;;;18.20;99.90;;;;;;5029218;28;20057;-61
2022/07/25 04:24:11;;;;;;;18.48;11.15;;;18.20;99.90;;;;;;5028677;28;20099;-61
2022/07/25 04:26:37;;;;;;;17.65;11.30;;;18.20;99.90;;;;;;5024819;28;20029;-61
2022/07/25 04:29:02;;;;;;;16.88;11.50;;;18.20;99.90;;;;;;5023028;28;20032;-61
2022/07/25 04:31:28;;;;;;;15.88;11.18;;;18.20;99.90;;;;;;5027476;28;20494;-60
2022/07/25 04:33:54;;;;;;;16.80;11.40;;;18.30;99.90;;;;;;5027787;28;20044;-61
2022/07/25 04:36:20;;;;;;;19.30;11.13;;;18.40;99.90;;;;;;5008002;28;20116;-60
2022/07/25 04:38:45;;;;;;;20.13;12.57;;;18.40;99.90;;;;;;5029702;28;20030;-61
2022/07/25 04:41:11;;;;;;;14.57;11.02;;;18.50;99.90;;;;;;5026935;28;20025;-61
2022/07/25 04:43:36;;;;;;;14.52;10.00;;;18.50;99.90;;;;;;5026536;28;20391;-60
2022/07/25 04:46:02;;;;;;;16.10;11.00;;;18.60;99.90;;;;;;5030929;28;20488;-61
2022/07/25 04:48:28;;;;;;;17.27;11.63;;;18.70;99.90;;;;;;5030194;28;20029;-60
2022/07/25 04:50:53;;;;;;;18.38;11.20;;;18.80;99.90;;;;;;5022466;28;20033;-60
2022/07/25 04:53:19;;;;;;;14.25;10.55;;;18.80;99.90;;;;;;5029974;28;20116;-61
2022/07/25 04:55:45;;;;;;;16.75;10.82;;;18.90;99.90;;;;;;5030725;28;20060;-60
2022/07/25 04:58:10;;;;;;;18.52;10.80;;;19.00;99.90;;;;;;5027322;28;20033;-61
2022/07/25 05:00:36;;;;;;;13.70;10.30;;;19.20;99.90;;;;;;5023883;28;20087;-61
2022/07/25 05:03:02;;;;;;;12.90;9.98;;;19.20;99.90;;;;;;5020395;28;20088;-59
2022/07/25 05:05:27;;;;;;;15.73;10.90;;;19.30;99.90;;;;;;5024701;28;20038;-61
2022/07/25 05:07:58;;;;;;;16.42;10.13;;;19.40;99.90;;;;;;5030612;28;20199;-60
2022/07/25 05:10:26;;;;;;;18.63;11.18;;;19.50;99.90;;;;;;5025220;28;20444;-61
2022/07/25 05:12:52;;;;;;;15.23;10.95;;;19.60;99.90;;;;;;5024940;28;20033;-61
2022/07/25 05:15:17;;;;;;;14.48;10.40;;;19.70;99.90;;;;;;5028882;28;20029;-60
2022/07/25 05:17:43;;;;;;;21.10;10.63;;;19.90;99.90;;;;;;5020647;28;20075;-60
2022/07/25 05:20:09;;;;;;;15.48;10.68;;;19.90;99.90;;;;;;5030677;28;20105;-59
2022/07/25 05:22:35;;;;;;;15.70;9.45;;;20.00;99.90;;;;;;5030950;28;20122;-60
2022/07/25 05:25:03;;;;;;;14.70;9.90;;;20.10;99.90;;;;;;5025003;28;20115;-59
2022/07/25 05:27:29;;;;;;;17.05;10.55;;;20.20;99.90;;;;;;5019499;28;20115;-60
2022/07/25 05:29:54;;;;;;;11.63;9.27;;;20.30;99.90;;;;;;5025339;28;20072;-60
2022/07/25 05:32:20;;;;;;;14.60;10.05;;;20.40;99.90;;;;;;5022073;28;20026;-60
2022/07/25 05:34:45;;;;;;;13.95;9.82;;;20.40;99.90;;;;;;5021778;28;20138;-58
2022/07/25 05:37:11;;;;;;;11.75;9.18;;;20.50;99.90;;;;;;5028620;28;20594;-58
2022/07/25 05:39:39;;;;;;;13.93;10.00;;;20.60;99.90;;;;;;5027240;28;20101;-58
2022/07/25 05:42:05;;;;;;;11.80;9.18;;;20.70;99.90;;;;;;5032517;28;20033;-58
2022/07/25 05:44:31;;;;;;;16.63;10.00;;;20.70;99.90;;;;;;5032773;28;20017;-59
2022/07/25 05:46:56;;;;;;;11.82;9.65;;;20.80;99.90;;;;;;5025882;28;20033;-57
2022/07/25 05:49:22;;;;;;;16.00;9.82;;;20.80;99.90;;;;;;5029827;28;20049;-57
2022/07/25 05:51:47;;;;;;;16.40;10.45;;;20.90;99.90;;;;;;5033022;28;20025;-57
2022/07/25 05:54:13;;;;;;;12.95;9.85;;;20.90;99.90;;;;;;5027437;28;20066;-57
2022/07/25 05:56:38;;;;;;;10.75;8.43;;;21.00;99.90;;;;;;5031297;28;20450;-56
2022/07/25 05:59:04;;;;;;;13.15;9.43;;;21.10;99.90;;;;;;5029120;28;20462;-59
2022/07/25 06:01:29;;;;;;;12.13;9.00;;;21.10;99.90;;;;;;5029099;28;20029;-57
2022/07/25 06:03:55;;;;;;;11.88;9.30;;;21.20;99.90;;;;;;5032497;28;20112;-57
2022/07/25 06:06:20;;;;;;;10.65;8.30;;;21.30;99.90;;;;;;5031470;28;20468;-57
2022/07/25 06:08:46;;;;;;;14.48;9.27;;;21.30;99.90;;;;;;5026772;28;20041;-56
2022/07/25 06:11:12;;;;;;;11.55;8.45;;;21.40;99.90;;;;;;5021846;28;20415;-57
2022/07/25 06:13:37;;;;;;;13.95;8.63;;;21.40;99.90;;;;;;5030985;28;20030;-57
2022/07/25 06:16:03;;;;;;;11.43;8.93;;;21.50;99.90;;;;;;5019895;28;20053;-58
2022/07/25 06:18:29;;;;;;;13.75;8.00;;;21.60;99.90;;;;;;5032224;28;20017;-58
2022/07/25 06:20:54;;;;;;;12.52;8.50;;;21.70;99.90;;;;;;5031768;28;20029;-58
2022/07/25 06:23:20;;;;;;;16.40;8.77;;;21.80;99.90;;;;;;5032580;28;20052;-59
2022/07/25 06:25:46;;;;;;;15.32;8.48;;;21.90;99.90;;;;;;5031320;28;20488;-58
2022/07/25 06:28:13;;;;;;;11.70;8.25;;;22.00;99.90;;;;;;5033589;28;20580;-58
2022/07/25 06:30:43;;;;;;;13.98;8.00;;;22.10;99.90;;;;;;5029910;28;20440;-58
2022/07/25 06:33:08;;;;;;;15.80;8.05;;;22.30;99.90;;;;;;5030862;28;20096;-58
2022/07/25 06:35:34;;;;;;;12.40;8.68;;;22.50;99.90;;;;;;5032645;28;20368;-58
2022/07/25 06:38:00;;;;;;;14.63;8.68;;;22.70;99.90;;;;;;5031556;28;20030;-58
2022/07/25 06:40:25;;;;;;;13.25;8.25;;;22.90;99.90;;;;;;5032888;28;20022;-59
2022/07/25 06:42:51;;;;;;;16.85;8.43;;;23.10;99.90;;;;;;5028820;28;20041;-58
2022/07/25 06:45:17;;;;;;;11.55;7.90;;;23.20;99.90;;;;;;5030698;28;20152;-57
2022/07/25 06:47:43;;;;;;;14.05;8.02;;;23.40;99.90;;;;;;5031352;28;20101;-58
2022/07/25 06:50:12;;;;;;;12.95;8.23;;;23.60;99.90;;;;;;5030980;28;20037;-58
2022/07/25 06:52:38;;;;;;;9.65;7.40;;;23.80;99.90;;;;;;5030753;28;20021;-58
2022/07/25 06:55:06;;;;;;;12.45;7.65;;;23.90;99.90;;;;;;5030812;28;20024;-58
2022/07/25 06:57:31;;;;;;;11.13;7.50;;;24.10;99.90;;;;;;5028256;28;20021;-57
2022/07/25 06:59:57;;;;;;;10.32;7.55;;;24.30;99.90;;;;;;5031764;28;20033;-59
2022/07/25 07:02:23;;;;;;;11.00;8.05;;;24.40;99.90;;;;;;5029969;28;20057;-59
2022/07/25 07:04:48;;;;;;;12.43;8.35;;;24.50;99.90;;;;;;5032879;28;20025;-58
2022/07/25 07:07:15;;;;;;;15.93;7.97;;;24.60;99.90;;;;;;5031916;28;20040;-58
2022/07/25 07:09:41;;;;;;;11.82;8.30;;;24.60;99.90;;;;;;5029838;28;20561;-57
2022/07/25 07:12:07;;;;;;;12.85;7.50;;;24.70;99.90;;;;;;5027525;28;20029;-58
2022/07/25 07:14:33;;;;;;;11.35;7.65;;;24.80;99.90;;;;;;5031733;28;20049;-57
2022/07/25 07:16:58;;;;;;;16.25;7.85;;;24.80;99.90;;;;;;5026632;28;20053;-58
2022/07/25 07:19:24;;;;;;;9.30;7.72;;;24.90;99.90;;;;;;5028433;28;20104;-58
2022/07/25 07:21:50;;;;;;;14.98;8.10;;;25.00;99.90;;;;;;5028471;28;20035;-58
2022/07/25 07:24:16;;;;;;;9.80;7.25;;;25.00;99.90;;;;;;5026505;28;20017;-57
2022/07/25 07:26:41;;;;;;;13.55;8.10;;;25.10;99.90;;;;;;5031889;28;20549;-58
2022/07/25 07:29:07;;;;;;;10.93;8.27;;;25.30;99.90;;;;;;5029797;28;20025;-58
2022/07/25 07:31:32;;;;;;;15.05;7.90;;;25.50;99.90;;;;;;5029802;28;20030;-58
2022/07/25 07:33:58;;;;;;;13.93;7.63;;;25.60;99.90;;;;;;5031809;28;20026;-57
2022/07/25 07:36:24;;;;;;;12.32;6.75;;;25.80;99.90;;;;;;5030376;28;20539;-58
2022/07/25 07:38:49;;;;;;;10.23;7.20;;;25.90;99.90;;;;;;5035996;28;20048;-58
2022/07/25 07:41:15;;;;;;;10.80;7.53;;;26.10;99.90;;;;;;5020325;28;20365;-57
2022/07/25 07:43:40;;;;;;;8.98;6.82;;;26.20;99.90;;;;;;5026114;28;20034;-58
2022/07/25 07:46:06;;;;;;;10.25;7.25;;;26.30;99.90;;;;;;5026417;28;20041;-58
2022/07/25 07:48:32;;;;;;;10.90;7.55;;;26.40;99.90;;;;;;5029260;28;20031;-58
2022/07/25 07:51:00;;;;;;;12.07;7.63;;;26.60;99.90;;;;;;5026427;28;20025;-59
2022/07/25 07:55:42;;;;;;;12.55;6.97;;;26.70;99.90;;;;;;5033349;28;20026;-56
2022/07/25 07:56:12;;;;;;;15.13;7.30;;;26.90;99.90;;;;;;5017825;28;20060;-58
2022/07/25 07:58:38;;;;;;;10.52;6.88;;;27.00;99.90;;;;;;5025304;28;20037;-58
2022/07/25 08:01:04;;;;;;;12.48;7.43;;;27.20;99.90;;;;;;5033505;28;20033;-58
2022/07/25 08:03:30;;;;;;;11.98;6.47;;;27.30;99.90;;;;;;5022826;28;20515;-56
2022/07/25 08:05:55;;;;;;;10.45;6.95;;;27.50;99.90;;;;;;5025200;28;20034;-58
2022/07/25 08:08:22;;;;;;;13.93;7.28;;;27.60;99.90;;;;;;5033733;28;20036;-57
2022/07/25 08:10:48;;;;;;;9.00;7.05;;;27.70;99.90;;;;;;5019581;28;20034;-57
2022/07/25 08:13:19;;;;;;;9.70;7.60;;;27.80;99.90;;;;;;5034619;23;20092;-58
2022/07/25 08:15:47;;;;;;;9.25;7.25;;;27.80;99.90;;;;;;5007118;28;20018;-55
2022/07/25 08:18:12;;;;;;;12.45;7.57;;;27.90;99.90;;;;;;5007598;28;20030;-58
2022/07/25 08:20:38;;;;;;;7.85;7.05;;;27.90;99.90;;;;;;5007080;28;20254;-57
2022/07/25 08:23:04;;;;;;;7.75;6.95;;;27.90;99.90;;;;;;5006906;28;20032;-54
2022/07/25 08:25:30;;;;;;;8.77;6.93;;;27.90;99.90;;;;;;5008712;28;20029;-58
2022/07/25 08:27:56;;;;;;;9.63;7.20;;;28.00;99.90;;;;;;5006709;28;20447;-54
2022/07/25 08:30:22;;;;;;;10.68;8.15;;;28.00;99.90;;;;;;5008244;28;20585;-58
2022/07/25 08:32:59;;;;;;;9.52;6.47;;;27.90;99.90;;;;;;5007549;28;20061;-57
2022/07/25 08:35:26;;;;;;;10.77;7.05;;;27.90;99.90;;;;;;5009012;28;20482;-56
2022/07/25 08:37:53;;;;;;;11.35;7.03;;;27.80;99.90;;;;;;5002960;28;20485;-58
2022/07/25 08:40:20;;;;;;;10.95;7.15;;;27.80;99.90;;;;;;5006869;28;20041;-58
2022/07/25 08:42:47;;;;;;;14.82;6.75;;;27.90;99.90;;;;;;5008899;28;20033;-57
2022/07/25 08:45:18;;;;;;;8.20;6.40;;;27.90;99.90;;;;;;5003035;28;20030;-59
2022/07/25 08:47:45;;;;;;;11.38;7.28;;;27.90;99.90;;;;;;5009505;28;20380;-56
2022/07/25 08:50:13;;;;;;;9.30;7.10;;;28.00;99.90;;;;;;5004404;28;20512;-57
2022/07/25 08:52:46;;;;;;;11.27;6.95;;;28.00;99.90;;;;;;5007264;28;20361;-56
2022/07/25 08:55:15;;;;;;;10.65;6.45;;;28.00;99.90;;;;;;5003933;28;20115;-55
2022/07/25 08:57:44;;;;;;;9.45;7.15;;;28.00;99.90;;;;;;5000298;28;20405;-54
2022/07/25 09:00:14;;;;;;;8.95;7.05;;;27.90;99.90;;;;;;5005116;28;20026;-56
2022/07/25 09:02:40;;;;;;;11.40;7.13;;;27.90;99.90;;;;;;4999671;28;20508;-55
2022/07/25 09:05:07;;;;;;;9.07;6.88;;;27.90;99.90;;;;;;5006381;28;20034;-55
2022/07/25 09:07:32;;;;;;;8.40;7.05;;;27.90;99.90;;;;;;5008551;28;20325;-57
2022/07/25 09:09:59;;;;;;;10.98;7.15;;;27.80;99.90;;;;;;5007040;28;20419;-58
2022/07/25 09:12:28;;;;;;;8.65;6.68;;;27.80;99.90;;;;;;5005187;28;20118;-55
2022/07/25 09:14:54;;;;;;;9.07;7.35;;;27.90;99.90;;;;;;5008996;28;20030;-57
2022/07/25 09:17:19;;;;;;;8.23;7.05;;;28.00;99.90;;;;;;5010127;28;20033;-58
2022/07/25 09:19:55;;;;;;;11.13;7.53;;;28.10;99.90;;;;;;5011624;28;20080;-59
2022/07/25 09:22:21;;;;;;;8.15;6.63;;;28.10;99.90;;;;;;5012500;28;20117;-57
2022/07/25 09:24:47;;;;;;;11.05;6.97;;;28.10;99.90;;;;;;5010199;28;20101;-57
2022/07/25 09:27:13;;;;;;;13.82;7.03;;;28.20;99.90;;;;;;5009537;28;20117;-56
2022/07/25 09:29:41;;;;;;;10.95;6.75;;;28.20;99.90;;;;;;5010076;28;20022;-55
2022/07/25 09:32:17;;;;;;;9.65;7.15;;;28.40;99.90;;;;;;5006243;28;20120;-57
2022/07/25 09:34:45;;;;;;;9.02;7.00;;;28.70;99.90;;;;;;5004588;28;20403;-56
2022/07/25 09:37:13;;;;;;;13.13;6.75;;;28.90;99.90;;;;;;5004963;28;20219;-57
2022/07/25 09:39:46;;;;;;;10.98;7.00;;;29.00;99.90;;;;;;5003708;28;20045;-57
2022/07/25 09:42:27;;;;;;;13.90;6.97;;;29.00;99.90;;;;;;5002986;28;20280;-57
2022/07/25 09:44:59;;;;;;;13.02;7.75;;;29.10;99.90;;;;;;5011245;28;20026;-57
2022/07/25 09:47:25;;;;;;;13.20;7.00;;;29.00;99.90;;;;;;5008411;28;20018;-54
2022/07/25 09:49:51;;;;;;;11.68;7.40;;;28.80;99.90;;;;;;5004420;28;20507;-55
2022/07/25 09:52:17;;;;;;;9.85;7.35;;;28.80;99.90;;;;;;5003902;28;20056;-56
2022/07/25 09:54:43;;;;;;;10.82;6.95;;;28.70;99.90;;;;;;5003952;28;20034;-57
2022/07/25 09:57:09;;;;;;;13.52;7.10;;;28.40;99.90;;;;;;5004691;28;20029;-57
2022/07/25 09:59:35;;;;;;;10.80;7.07;;;28.30;99.90;;;;;;5004419;28;20566;-56
2022/07/25 10:02:10;;;;;;;9.95;7.70;;;28.20;99.90;;;;;;5003452;28;20026;-58
2022/07/25 10:05:10;;;;;;;12.88;7.68;;;28.00;99.90;;;;;;5008097;28;21127;-57
2022/07/25 10:07:37;;;;;;;11.05;7.43;;;27.90;99.90;;;;;;4996060;28;20523;-57
2022/07/25 10:10:04;;;;;;;10.07;7.43;;;27.70;99.90;;;;;;5005191;28;20026;-56
2022/07/25 10:12:30;;;;;;;10.55;7.00;;;27.40;99.90;;;;;;5010597;28;20104;-56
2022/07/25 10:15:09;;;;;;;10.73;7.18;;;27.20;99.90;;;;;;5006861;28;20517;-57
2022/07/25 10:17:36;;;;;;;10.52;6.50;;;27.00;99.90;;;;;;5010844;28;20026;-56
2022/07/25 10:20:05;;;;;;;14.80;6.97;;;26.90;99.90;;;;;;5006211;28;20496;-55
2022/07/25 10:22:45;;;;;;;12.20;7.43;;;26.70;99.90;;;;;;5007491;28;20444;-56
2022/07/25 10:25:18;;;;;;;12.07;7.32;;;26.60;99.90;;;;;;5007113;28;20041;-54
2022/07/25 10:27:51;;;;;;;14.20;8.05;;;26.30;99.90;;;;;;5005591;28;20034;-53
2022/07/25 10:30:26;;;;;;;14.07;7.47;;;26.10;99.90;;;;;;5007996;28;20113;-57
2022/07/25 10:32:59;;;;;;;17.00;8.57;;;26.00;99.90;;;;;;5006475;28;20034;-54
2022/07/25 10:35:26;;;;;;;14.27;9.23;;;25.90;99.90;;;;;;5007975;28;20441;-57
2022/07/25 10:37:57;;;;;;;12.32;7.72;;;25.90;99.90;;;;;;5006843;28;20029;-56
2022/07/25 10:40:39;;;;;;;11.00;7.97;;;26.00;99.90;;;;;;5004934;28;20030;-57
2022/07/25 10:43:04;;;;;;;14.60;8.45;;;26.10;99.90;;;;;;5008158;28;20034;-57
2022/07/25 10:45:38;;;;;;;11.35;7.70;;;26.30;99.90;;;;;;5010318;28;20038;-55
2022/07/25 10:48:11;;;;;;;11.98;7.50;;;26.20;99.90;;;;;;5009787;28;20037;-58
2022/07/25 10:50:52;;;;;;;9.10;7.05;;;26.10;99.90;;;;;;5006133;28;20407;-57
2022/07/25 10:53:32;;;;;;;18.05;7.00;;;26.10;99.90;;;;;;5011164;28;20041;-57
2022/07/25 10:56:08;;;;;;;9.68;7.28;;;26.10;99.90;;;;;;5009976;28;20017;-59
2022/07/25 10:59:00;;;;;;;13.15;6.70;;;26.10;99.90;;;;;;5008708;28;20025;-59
2022/07/25 11:01:35;;;;;;;13.07;7.57;;;26.20;99.90;;;;;;5008401;28;20025;-58
2022/07/25 11:04:03;;;;;;;12.70;7.07;;;26.30;99.90;;;;;;5011586;28;20036;-57
2022/07/25 11:06:35;;;;;;;12.23;6.90;;;26.40;99.90;;;;;;5010622;28;20060;-58
2022/07/25 11:09:02;;;;;;;10.27;5.80;;;26.60;99.90;;;;;;5011346;28;20037;-57
2022/07/25 11:11:39;;;;;;;14.70;6.10;;;27.00;99.90;;;;;;5010005;28;20029;-57
2022/07/25 11:14:12;;;;;;;8.02;6.68;;;26.90;99.90;;;;;;5010116;28;20034;-58
2022/07/25 11:16:38;;;;;;;8.60;6.32;;;27.10;99.90;;;;;;5008750;28;20026;-58
2022/07/25 11:19:14;;;;;;;13.00;6.88;;;27.30;99.90;;;;;;5008695;28;20045;-57
2022/07/25 11:21:44;;;;;;;10.77;6.07;;;27.00;99.90;;;;;;5009541;28;20500;-57
2022/07/25 11:24:09;;;;;;;8.68;7.15;;;27.10;99.90;;;;;;5009818;28;20472;-58
2022/07/25 11:26:47;;;;;;;8.95;6.45;;;27.00;99.90;;;;;;5010763;28;20025;-59
2022/07/25 11:29:25;;;;;;;9.80;6.30;;;27.00;99.90;;;;;;5010734;28;20026;-57
2022/07/25 11:32:01;;;;;;;9.07;6.53;;;27.10;99.90;;;;;;5005311;28;20088;-55
2022/07/25 11:34:31;;;;;;;10.60;6.35;;;27.00;99.90;;;;;;5009215;28;20034;-58
2022/07/25 11:36:59;;;;;;;11.18;6.82;;;27.10;99.90;;;;;;5009048;28;20047;-55
2022/07/25 11:39:29;;;;;;;18.73;7.43;;;27.00;99.90;;;;;;5009971;28;20068;-57
2022/07/25 11:42:06;;;;;;;11.02;5.80;;;26.90;99.90;;;;;;5003764;28;20034;-57
2022/07/25 11:44:34;;;;;;;12.43;5.70;;;27.00;99.90;;;;;;5008076;28;20053;-56
2022/07/25 11:47:00;;;;;;;6.80;5.32;;;27.10;99.90;;;;;;5006046;28;20025;-57
2022/07/25 11:49:26;;;;;;;8.43;5.55;;;27.20;99.90;;;;;;5008660;28;20077;-55
2022/07/25 11:51:52;;;;;;;11.25;5.82;;;27.20;99.90;;;;;;5007822;28;20057;-54
2022/07/25 11:54:18;;;;;;;9.10;5.43;;;27.20;99.90;;;;;;5009201;28;20396;-57
2022/07/25 11:56:45;;;;;;;10.80;5.22;;;27.30;99.90;;;;;;5009604;28;20486;-58
2022/07/25 11:59:11;;;;;;;8.93;4.95;;;27.70;99.90;;;;;;5007910;28;20030;-58
2022/07/25 12:01:42;;;;;;;9.75;5.25;;;27.60;99.90;;;;;;5008592;28;20014;-58
2022/07/25 12:04:18;;;;;;;15.63;5.40;;;27.50;99.90;;;;;;5006513;28;20065;-56
2022/07/25 12:06:46;;;;;;;6.70;5.00;;;27.40;99.90;;;;;;5009786;28;20033;-57
2022/07/25 12:09:17;;;;;;;6.53;4.55;;;27.20;99.90;;;;;;5002278;28;20588;-52
2022/07/25 12:11:43;;;;;;;9.02;5.00;;;27.20;99.90;;;;;;5001863;28;20400;-57
2022/07/25 12:14:09;;;;;;;7.43;4.72;;;27.10;99.90;;;;;;4998526;28;20113;-54
2022/07/25 12:16:36;;;;;;;6.70;4.50;;;27.10;99.90;;;;;;5001710;28;20109;-57
2022/07/25 12:19:03;;;;;;;9.65;4.40;;;27.10;99.90;;;;;;5000839;28;20037;-57
2022/07/25 12:21:29;;;;;;;9.00;4.25;;;27.20;99.90;;;;;;5003547;28;20722;-57
2022/07/25 12:23:54;;;;;;;8.40;5.25;;;27.20;99.90;;;;;;4996632;28;20039;-58
2022/07/25 12:26:20;;;;;;;13.27;5.40;;;27.20;99.90;;;;;;4999352;28;20033;-58
2022/07/25 12:28:45;;;;;;;11.80;5.10;;;27.20;99.90;;;;;;5000062;28;20034;-59
2022/07/25 12:31:11;;;;;;;7.88;4.40;;;27.20;99.90;;;;;;4999603;28;20022;-53
2022/07/25 12:33:38;;;;;;;8.48;4.93;;;27.10;99.90;;;;;;4999068;28;20026;-57
2022/07/25 12:36:04;;;;;;;10.25;4.85;;;27.60;99.90;;;;;;5002614;28;20071;-58
2022/07/25 12:38:29;;;;;;;7.55;4.50;;;28.20;99.90;;;;;;4995884;28;20027;-56